Time;durP1;ratioP1;P1;durP2;ratioP2;P2;SDS_P1;SDS_P2;PMS_P1;PMS_P2;Temp;Humidity;BMP_temperature;BMP_pressure;BME280_temperature;BME280_humidity;BME280_pressure;Samples;Min_cycle;Max_cycle;Signal;HPM_P1;HPM_P2
2023/01/24 00:01:23;;;;;;;24.27;15.40;;;2.90;99.90;;;;;;5046260;28;20044;-86
2023/01/24 00:03:49;;;;;;;25.08;15.55;;;2.90;99.90;;;;;;5038343;28;20049;-86
2023/01/24 00:06:15;;;;;;;23.63;15.73;;;2.90;99.90;;;;;;5028957;28;20103;-86
2023/01/24 00:08:41;;;;;;;29.33;16.27;;;2.90;99.90;;;;;;5045887;28;20505;-86
2023/01/24 00:11:08;;;;;;;27.10;15.70;;;2.90;99.90;;;;;;5045350;28;20817;-86
2023/01/24 00:13:38;;;;;;;26.58;15.68;;;2.90;99.90;;;;;;5046103;28;20049;-86
2023/01/24 00:16:12;;;;;;;21.67;15.25;;;2.90;99.90;;;;;;5048148;28;20045;-86
2023/01/24 00:18:38;;;;;;;23.70;15.57;;;2.90;99.90;;;;;;5045484;28;20179;-86
2023/01/24 00:21:15;;;;;;;25.00;15.82;;;2.90;99.90;;;;;;5048192;28;20197;-86
2023/01/24 00:23:43;;;;;;;25.42;15.90;;;2.90;99.90;;;;;;5047752;28;20052;-86
2023/01/24 00:26:13;;;;;;;26.15;15.45;;;2.90;99.90;;;;;;5047359;28;20057;-86
2023/01/24 00:28:38;;;;;;;24.02;15.80;;;2.90;99.90;;;;;;5047179;28;20045;-86
2023/01/24 00:31:04;;;;;;;23.42;15.35;;;2.80;99.90;;;;;;5034367;28;20049;-86
2023/01/24 00:33:34;;;;;;;23.20;14.93;;;2.90;99.90;;;;;;5043328;28;20110;-86
2023/01/24 00:36:01;;;;;;;27.02;16.10;;;2.90;99.90;;;;;;5046364;28;20089;-86
2023/01/24 00:38:29;;;;;;;25.92;16.05;;;2.90;99.90;;;;;;5026744;28;20049;-86
2023/01/24 00:40:55;;;;;;;25.67;15.52;;;2.90;99.90;;;;;;5034118;28;20045;-86
2023/01/24 00:43:22;;;;;;;25.70;17.05;;;2.90;99.90;;;;;;5046893;28;20041;-86
2023/01/24 00:45:48;;;;;;;28.60;17.30;;;2.90;99.90;;;;;;5047201;28;20045;-85
2023/01/24 00:48:15;;;;;;;24.85;16.63;;;2.90;99.90;;;;;;5041381;28;20091;-86
2023/01/24 00:50:41;;;;;;;25.85;16.27;;;2.80;99.90;;;;;;5023550;28;20810;-86
2023/01/24 00:53:09;;;;;;;24.45;15.63;;;2.90;99.90;;;;;;5030112;28;20041;-86
2023/01/24 00:55:42;;;;;;;26.65;17.50;;;2.90;99.90;;;;;;5048133;28;20171;-86
2023/01/24 00:58:09;;;;;;;26.92;16.75;;;2.90;99.90;;;;;;5045203;28;20659;-86
2023/01/24 01:00:36;;;;;;;27.58;17.42;;;2.90;99.90;;;;;;5030145;28;20501;-86
2023/01/24 01:03:02;;;;;;;28.13;16.73;;;3.60;99.90;;;;;;5028068;28;20494;-86
2023/01/24 01:05:28;;;;;;;26.13;17.13;;;2.90;99.90;;;;;;5041965;28;20041;-86
2023/01/24 01:07:54;;;;;;;27.33;17.05;;;2.80;99.90;;;;;;5023809;28;20042;-85
2023/01/24 01:10:19;;;;;;;28.70;17.65;;;3.00;99.90;;;;;;5043868;28;20467;-86
2023/01/24 01:12:45;;;;;;;27.27;16.67;;;3.40;99.90;;;;;;5045296;28;20056;-86
2023/01/24 01:15:11;;;;;;;27.90;17.45;;;2.80;99.90;;;;;;5047300;28;20041;-86
2023/01/24 01:17:36;;;;;;;25.98;16.65;;;2.90;99.90;;;;;;5025744;28;20049;-86
2023/01/24 01:20:02;;;;;;;31.55;17.63;;;2.80;99.90;;;;;;5045796;28;20064;-85
2023/01/24 01:22:28;;;;;;;27.10;16.60;;;2.90;99.90;;;;;;5044772;28;20056;-86
2023/01/24 01:24:53;;;;;;;25.83;16.25;;;2.80;99.90;;;;;;5046707;28;20138;-86
2023/01/24 01:27:19;;;;;;;26.23;17.67;;;2.80;99.90;;;;;;5026615;28;20068;-86
2023/01/24 01:29:45;;;;;;;26.58;16.10;;;2.80;99.90;;;;;;5028857;28;20068;-86
2023/01/24 01:32:10;;;;;;;27.15;17.42;;;2.80;99.90;;;;;;5046060;28;20092;-86
2023/01/24 01:34:36;;;;;;;27.52;16.92;;;2.80;99.90;;;;;;5045118;28;20399;-85
2023/01/24 01:37:02;;;;;;;30.27;17.52;;;2.90;99.90;;;;;;5038332;28;20049;-86
2023/01/24 01:39:28;;;;;;;28.98;17.35;;;2.80;99.90;;;;;;5044183;28;20083;-86
2023/01/24 01:41:54;;;;;;;26.48;16.80;;;2.80;99.90;;;;;;5045352;28;20044;-86
2023/01/24 01:44:38;;;;;;;27.67;16.52;;;4.00;99.90;;;;;;5045082;28;20367;-86
2023/01/24 01:47:32;;;;;;;25.42;15.13;;;2.90;99.90;;;;;;5045269;28;20079;-86
2023/01/24 01:50:00;;;;;;;24.58;15.18;;;2.90;99.90;;;;;;5026496;28;20095;-86
2023/01/24 01:52:36;;;;;;;25.60;15.98;;;2.90;99.90;;;;;;5031401;28;20134;-86
2023/01/24 01:55:09;;;;;;;25.02;15.90;;;2.90;99.90;;;;;;5046041;28;20091;-86
2023/01/24 01:57:37;;;;;;;24.42;15.60;;;2.90;99.90;;;;;;5027251;28;20813;-86
2023/01/24 02:00:13;;;;;;;23.48;15.27;;;2.90;99.90;;;;;;5026205;28;20893;-86
2023/01/24 02:02:41;;;;;;;24.42;14.55;;;2.80;99.90;;;;;;5045656;28;20136;-86
2023/01/24 02:05:09;;;;;;;24.88;14.93;;;2.90;99.90;;;;;;5050111;28;20049;-86
2023/01/24 02:07:53;;;;;;;24.83;15.68;;;2.90;99.90;;;;;;5046768;28;20048;-86
2023/01/24 02:10:21;;;;;;;24.75;15.98;;;2.90;99.90;;;;;;5047670;28;20060;-86
2023/01/24 02:12:49;;;;;;;26.58;16.20;;;3.90;99.90;;;;;;5031070;28;20056;-86
2023/01/24 02:18:04;;;;;;;22.58;14.98;;;2.90;99.90;;;;;;5048516;28;20049;-86
2023/01/24 02:20:39;;;;;;;24.55;15.20;;;4.10;99.90;;;;;;5036590;28;20060;-86
2023/01/24 02:23:16;;;;;;;26.42;15.10;;;2.90;99.90;;;;;;5041902;28;20132;-85
2023/01/24 02:25:50;;;;;;;23.92;14.63;;;2.90;99.90;;;;;;5048712;28;20053;-86
2023/01/24 02:28:19;;;;;;;21.65;14.90;;;2.90;99.90;;;;;;5047617;28;20053;-86
2023/01/24 02:30:46;;;;;;;24.20;14.93;;;2.80;99.90;;;;;;5048334;28;20053;-86
2023/01/24 02:33:19;;;;;;;22.88;15.65;;;2.90;99.90;;;;;;5048082;28;20065;-85
2023/01/24 02:35:44;;;;;;;;;;;2.90;99.90;;;;;;5049650;28;20441;-86
2023/01/24 02:38:22;;;;;;;20.63;13.45;;;2.90;99.90;;;;;;5031582;28;20216;-86
2023/01/24 02:40:53;;;;;;;22.63;13.85;;;2.90;99.90;;;;;;5050525;28;20380;-86
2023/01/24 02:43:22;;;;;;;21.85;14.65;;;2.80;99.90;;;;;;5046981;28;20049;-86
2023/01/24 02:45:47;;;;;;;21.02;13.88;;;2.80;99.90;;;;;;5049483;28;20048;-86
2023/01/24 02:48:13;;;;;;;20.10;13.52;;;2.90;99.90;;;;;;5048034;28;20041;-86
2023/01/24 02:53:29;;;;;;;20.52;13.63;;;2.90;99.90;;;;;;5062048;28;20402;-85
2023/01/24 02:58:39;;;;;;;22.15;14.18;;;2.90;99.90;;;;;;5047615;28;20131;-86
2023/01/24 03:01:04;;;;;;;18.92;13.32;;;2.90;99.90;;;;;;5048664;28;20171;-86
2023/01/24 03:03:30;;;;;;;19.15;13.43;;;1.80;99.90;;;;;;5048730;28;20480;-86
2023/01/24 03:05:56;;;;;;;19.50;13.07;;;2.90;99.90;;;;;;5048043;28;20052;-86
2023/01/24 03:08:26;;;;;;;20.42;13.35;;;2.90;99.90;;;;;;5031366;28;20044;-85
2023/01/24 03:10:52;;;;;;;19.60;12.68;;;2.90;99.90;;;;;;5048918;28;20044;-86
2023/01/24 03:35:18;;;;;;;20.92;13.32;;;2.90;99.90;;;;;;5043927;28;20053;-85
2023/01/24 03:40:28;;;;;;;19.95;13.57;;;2.80;99.90;;;;;;5047329;28;20094;-85
2023/01/24 03:42:53;;;;;;;19.73;13.57;;;2.90;99.90;;;;;;5040012;28;20520;-85
2023/01/24 03:45:28;;;;;;;20.38;12.98;;;2.80;99.90;;;;;;5048321;28;20421;-85
2023/01/24 03:47:59;;;;;;;17.30;12.65;;;2.90;99.90;;;;;;5039521;28;20140;-86
2023/01/24 03:53:16;;;;;;;19.27;12.52;;;2.80;99.90;;;;;;5048482;28;20056;-86
2023/01/24 03:55:42;;;;;;;18.75;12.43;;;2.80;99.90;;;;;;5049672;28;20048;-84
2023/01/24 03:58:11;;;;;;;19.08;12.63;;;2.90;99.90;;;;;;5046755;28;20053;-84
2023/01/24 04:00:38;;;;;;;19.40;13.43;;;2.90;99.90;;;;;;5048021;28;20062;-84
2023/01/24 04:03:05;;;;;;;21.85;13.32;;;2.90;99.90;;;;;;5047017;28;20041;-84
2023/01/24 04:05:33;;;;;;;20.67;13.70;;;2.80;99.90;;;;;;5027198;28;20034;-85
2023/01/24 04:07:58;;;;;;;19.58;12.98;;;2.80;99.90;;;;;;5026465;28;20087;-84
2023/01/24 04:10:31;;;;;;;20.42;13.43;;;2.80;99.90;;;;;;5038098;28;20522;-84
2023/01/24 04:12:57;;;;;;;19.73;13.00;;;2.80;99.90;;;;;;5045900;28;20503;-84
2023/01/24 04:15:28;;;;;;;17.08;12.35;;;2.90;99.90;;;;;;5047895;28;20056;-84
2023/01/24 04:17:56;;;;;;;17.90;11.75;;;2.90;99.90;;;;;;5046679;28;20060;-84
2023/01/24 04:20:22;;;;;;;17.30;11.88;;;2.90;99.90;;;;;;5047061;28;20127;-84
2023/01/24 04:22:51;;;;;;;17.45;11.48;;;3.50;99.90;;;;;;5032856;28;20719;-84
2023/01/24 04:25:17;;;;;;;18.08;11.60;;;2.90;99.90;;;;;;5027344;28;20041;-84
2023/01/24 04:27:42;;;;;;;17.85;11.63;;;2.90;99.90;;;;;;5044979;28;20040;-84
2023/01/24 04:30:10;;;;;;;17.98;11.82;;;2.80;99.90;;;;;;5028661;28;20053;-84
2023/01/24 04:32:37;;;;;;;17.13;11.80;;;2.90;99.90;;;;;;5046175;28;20061;-84
2023/01/24 04:35:03;;;;;;;17.83;10.63;;;2.80;99.90;;;;;;5042851;28;20045;-84
2023/01/24 04:37:30;;;;;;;15.25;11.27;;;2.80;99.90;;;;;;5045434;28;20040;-85
2023/01/24 04:39:56;;;;;;;18.38;11.10;;;2.80;99.90;;;;;;5046024;28;20591;-84
2023/01/24 04:42:21;;;;;;;18.70;10.10;;;2.90;99.90;;;;;;5041308;28;20136;-84
2023/01/24 04:44:47;;;;;;;17.33;11.02;;;3.90;99.90;;;;;;5045982;28;20045;-84
2023/01/24 04:47:13;;;;;;;16.33;10.95;;;2.80;99.90;;;;;;5045776;28;20376;-84
2023/01/24 04:49:41;;;;;;;13.70;10.73;;;2.80;99.90;;;;;;5044291;28;20045;-85
2023/01/24 04:52:10;;;;;;;14.65;10.27;;;2.80;99.90;;;;;;5044623;28;20053;-85
2023/01/24 04:54:36;;;;;;;15.30;10.60;;;2.80;99.90;;;;;;5045860;28;20128;-84
2023/01/24 04:57:01;;;;;;;16.17;10.05;;;3.60;99.90;;;;;;5045842;28;20136;-84
2023/01/24 04:59:27;;;;;;;14.52;10.02;;;2.80;99.90;;;;;;5041796;28;20594;-84
2023/01/24 05:01:52;;;;;;;15.75;10.88;;;2.80;99.90;;;;;;5041337;28;20048;-84
2023/01/24 05:04:18;;;;;;;15.80;9.98;;;2.70;99.90;;;;;;5037623;28;20045;-85
2023/01/24 05:06:44;;;;;;;16.52;10.98;;;2.80;99.90;;;;;;5030231;28;20139;-84
2023/01/24 05:09:09;;;;;;;15.63;10.40;;;2.90;99.90;;;;;;5038717;28;20490;-84
2023/01/24 05:11:36;;;;;;;13.60;9.45;;;3.00;99.90;;;;;;5016028;28;20049;-84
2023/01/24 05:14:02;;;;;;;13.68;10.13;;;2.80;99.90;;;;;;5035979;28;20041;-84
2023/01/24 05:16:28;;;;;;;13.57;9.82;;;2.80;99.90;;;;;;5031625;28;20049;-84
2023/01/24 05:18:54;;;;;;;16.02;9.95;;;4.00;99.90;;;;;;5045975;28;20060;-84
2023/01/24 05:21:19;;;;;;;13.77;9.85;;;2.80;99.90;;;;;;5045773;28;20045;-84
2023/01/24 05:23:52;;;;;;;14.70;9.75;;;2.80;99.90;;;;;;5045706;28;20045;-84
2023/01/24 05:26:21;;;;;;;13.55;9.25;;;2.80;99.90;;;;;;5045610;28;20070;-84
2023/01/24 05:28:47;;;;;;;13.82;9.70;;;2.70;99.90;;;;;;5047013;28;20080;-83
2023/01/24 05:31:13;;;;;;;12.60;9.48;;;3.20;99.90;;;;;;5020972;28;20365;-83
2023/01/24 05:33:39;;;;;;;13.40;10.40;;;2.80;99.90;;;;;;5044985;28;20064;-84
2023/01/24 05:36:18;;;;;;;16.60;10.43;;;2.70;99.90;;;;;;5041113;28;20087;-83
2023/01/24 05:38:44;;;;;;;13.65;9.20;;;2.70;99.90;;;;;;5033070;28;20044;-84
2023/01/24 05:41:12;;;;;;;13.95;9.65;;;2.70;99.90;;;;;;5032224;28;20483;-84
2023/01/24 05:43:38;;;;;;;13.20;9.93;;;2.70;99.90;;;;;;5032647;28;20526;-84
2023/01/24 05:46:10;;;;;;;13.57;9.23;;;2.70;99.90;;;;;;5048458;28;20033;-84
2023/01/24 05:48:36;;;;;;;12.77;9.73;;;2.90;99.90;;;;;;5049026;28;20449;-84
2023/01/24 05:51:07;;;;;;;13.52;9.27;;;2.70;99.90;;;;;;5048146;28;20037;-84
2023/01/24 05:53:35;;;;;;;14.18;9.50;;;2.70;99.90;;;;;;5028895;28;20448;-84
2023/01/24 05:56:05;;;;;;;12.43;9.57;;;2.70;99.90;;;;;;5029043;28;20042;-83
2023/01/24 05:58:36;;;;;;;14.07;9.70;;;2.70;99.90;;;;;;5015244;28;20055;-84
2023/01/24 06:01:10;;;;;;;13.25;9.73;;;2.70;99.90;;;;;;5042140;28;20053;-84
2023/01/24 06:03:40;;;;;;;14.02;9.68;;;2.60;99.90;;;;;;5032913;28;22391;-84
2023/01/24 06:06:07;;;;;;;13.05;9.50;;;2.60;99.90;;;;;;5047988;28;20486;-84
2023/01/24 06:08:33;;;;;;;13.50;10.00;;;2.60;99.90;;;;;;5048325;28;20037;-83
2023/01/24 06:11:05;;;;;;;13.27;9.05;;;2.60;99.90;;;;;;5037091;28;20079;-84
2023/01/24 06:13:33;;;;;;;13.45;9.38;;;2.70;99.90;;;;;;5031431;28;20546;-84
2023/01/24 06:16:05;;;;;;;12.63;8.82;;;3.20;99.90;;;;;;5049235;28;20049;-86
2023/01/24 06:18:31;;;;;;;13.10;9.85;;;2.70;99.90;;;;;;5031031;28;20045;-85
2023/01/24 06:20:57;;;;;;;14.55;10.15;;;2.60;99.90;;;;;;5029264;28;20442;-84
2023/01/24 06:23:27;;;;;;;14.88;9.82;;;2.60;99.90;;;;;;5048776;28;20124;-85
2023/01/24 06:25:53;;;;;;;13.45;9.57;;;2.60;99.90;;;;;;5049464;28;20148;-84
2023/01/24 06:28:19;;;;;;;13.95;9.50;;;2.60;99.90;;;;;;5048234;28;20123;-88
2023/01/24 06:31:10;;;;;;;14.55;9.82;;;2.60;99.90;;;;;;5020679;28;20175;-88
2023/01/24 06:33:38;;;;;;;14.93;10.68;;;2.70;99.90;;;;;;5015553;28;20084;-87
2023/01/24 06:36:29;;;;;;;13.50;10.15;;;2.60;99.90;;;;;;5032139;28;20049;-88
2023/01/24 06:38:55;;;;;;;14.88;9.88;;;2.60;99.90;;;;;;5049688;28;20128;-87
2023/01/24 06:41:20;;;;;;;14.30;10.18;;;1.70;99.90;;;;;;5032544;28;20123;-88
2023/01/24 06:43:55;;;;;;;14.70;9.90;;;2.60;99.90;;;;;;5049676;28;20041;-88
2023/01/24 06:46:21;;;;;;;15.23;9.95;;;2.60;99.90;;;;;;5034296;28;20511;-89
2023/01/24 06:48:50;;;;;;;14.27;10.02;;;2.60;99.90;;;;;;5034025;28;20049;-89
2023/01/24 06:51:21;;;;;;;15.25;10.52;;;2.60;99.90;;;;;;5050632;28;20114;-89
2023/01/24 06:53:48;;;;;;;14.45;10.40;;;3.30;99.90;;;;;;5050396;28;20383;-89
2023/01/24 06:56:17;;;;;;;13.00;9.40;;;2.60;99.90;;;;;;5050029;28;20056;-89
2023/01/24 06:58:42;;;;;;;15.75;10.10;;;2.60;99.90;;;;;;5033047;28;20150;-89
2023/01/24 07:01:11;;;;;;;14.20;10.05;;;2.60;99.90;;;;;;5049723;28;20041;-89
2023/01/24 07:03:36;;;;;;;15.02;9.88;;;2.60;99.90;;;;;;5048362;28;20051;-89
2023/01/24 07:06:02;;;;;;;13.88;10.05;;;2.60;99.90;;;;;;5048885;28;20055;-89
2023/01/24 07:08:28;;;;;;;15.75;9.95;;;2.60;99.90;;;;;;5051137;28;20076;-90
2023/01/24 07:10:53;;;;;;;16.48;11.30;;;2.60;99.90;;;;;;5031679;28;20145;-89
2023/01/24 07:13:19;;;;;;;16.45;11.40;;;2.60;99.90;;;;;;5051128;28;20113;-90
2023/01/24 07:15:45;;;;;;;12.80;9.95;;;2.60;99.90;;;;;;5034238;28;20492;-89
2023/01/24 07:18:16;;;;;;;13.95;10.15;;;2.60;99.90;;;;;;5047374;28;20072;-89
2023/01/24 07:20:42;;;;;;;16.58;10.70;;;2.60;99.90;;;;;;5029472;28;20050;-88
2023/01/24 07:23:29;;;;;;;16.50;11.48;;;2.60;99.90;;;;;;5029402;28;20418;-88
2023/01/24 07:25:55;;;;;;;14.23;10.38;;;2.60;99.90;;;;;;5013615;28;20045;-89
2023/01/24 07:28:21;;;;;;;15.05;9.77;;;2.60;99.90;;;;;;5029613;28;20084;-89
2023/01/24 07:30:48;;;;;;;15.02;10.43;;;2.60;99.90;;;;;;5013894;28;20366;-89
2023/01/24 07:33:14;;;;;;;13.27;9.88;;;2.50;99.90;;;;;;5047071;28;20111;-89
2023/01/24 07:35:41;;;;;;;16.77;10.60;;;2.50;99.90;;;;;;5048944;28;20411;-89
2023/01/24 07:38:07;;;;;;;15.15;10.02;;;3.40;99.90;;;;;;5031658;28;20053;-88
2023/01/24 07:40:33;;;;;;;15.80;10.45;;;2.60;99.90;;;;;;5050323;28;20495;-88
2023/01/24 07:43:00;;;;;;;14.45;10.57;;;2.50;99.90;;;;;;5049392;28;20052;-88
2023/01/24 07:45:26;;;;;;;13.85;10.00;;;2.50;99.90;;;;;;5049418;28;20049;-88
2023/01/24 07:47:56;;;;;;;14.68;10.45;;;2.50;99.90;;;;;;5049499;28;20041;-89
2023/01/24 07:50:23;;;;;;;14.43;9.77;;;2.50;99.90;;;;;;5041750;28;20042;-89
2023/01/24 07:52:52;;;;;;;14.68;10.75;;;2.50;99.90;;;;;;5039827;28;20071;-88
2023/01/24 07:55:19;;;;;;;15.70;10.38;;;2.50;99.90;;;;;;5049195;28;20482;-88
2023/01/24 07:57:44;;;;;;;15.55;10.27;;;2.50;99.90;;;;;;5031723;28;20084;-89
2023/01/24 08:00:11;;;;;;;15.98;11.05;;;2.50;99.90;;;;;;5030881;28;20152;-88
2023/01/24 08:02:36;;;;;;;15.63;10.43;;;2.50;99.90;;;;;;5047992;28;20045;-88
2023/01/24 08:05:02;;;;;;;14.48;10.27;;;3.50;99.90;;;;;;5048179;28;20036;-88
2023/01/24 08:07:28;;;;;;;15.95;10.88;;;2.50;99.90;;;;;;5032597;28;20406;-88
2023/01/24 08:09:53;;;;;;;16.38;11.18;;;1.70;99.90;;;;;;5051056;28;20037;-89
2023/01/24 08:12:20;;;;;;;15.25;11.00;;;2.50;99.90;;;;;;5050013;28;20049;-90
2023/01/24 08:14:45;;;;;;;14.07;10.23;;;3.30;99.90;;;;;;5045095;28;20037;-90
2023/01/24 08:17:11;;;;;;;15.68;11.40;;;3.40;99.90;;;;;;5032526;28;20048;-92
2023/01/24 08:19:38;;;;;;;14.05;10.65;;;3.70;99.90;;;;;;5033509;28;20052;-92
2023/01/24 08:22:03;;;;;;;13.70;10.32;;;3.70;99.90;;;;;;5032547;28;20114;-90
2023/01/24 08:24:29;;;;;;;15.60;11.57;;;2.50;99.90;;;;;;5033403;28;20044;-91
2023/01/24 08:26:55;;;;;;;13.27;10.10;;;2.40;99.90;;;;;;5031717;28;20136;-92
2023/01/24 08:29:20;;;;;;;16.10;11.15;;;2.50;99.90;;;;;;5026140;28;20152;-90
2023/01/24 08:31:48;;;;;;;14.48;10.30;;;2.50;99.90;;;;;;5012929;28;20384;-91
2023/01/24 08:34:14;;;;;;;15.48;10.93;;;2.40;99.90;;;;;;5012767;28;20500;-91
2023/01/24 08:36:39;;;;;;;16.38;10.65;;;2.20;99.90;;;;;;5012693;28;20038;-92
2023/01/24 08:39:05;;;;;;;14.70;10.65;;;2.50;99.90;;;;;;5012805;28;20137;-92
2023/01/24 08:41:31;;;;;;;14.65;10.02;;;2.50;99.90;;;;;;5012922;28;20152;-92
2023/01/24 08:43:56;;;;;;;12.90;9.80;;;2.50;99.90;;;;;;5016628;28;20079;-91
2023/01/24 08:46:22;;;;;;;14.38;10.27;;;2.50;99.90;;;;;;5032704;28;20037;-91
2023/01/24 08:48:48;;;;;;;14.27;10.75;;;2.50;99.90;;;;;;5033542;28;20507;-92
2023/01/24 08:51:13;;;;;;;14.60;10.93;;;2.50;99.90;;;;;;5033519;28;20541;-92
2023/01/24 08:53:39;;;;;;;15.02;10.85;;;2.50;99.90;;;;;;5049966;28;20043;-91
2023/01/24 08:56:07;;;;;;;13.75;10.35;;;2.50;99.90;;;;;;5031792;28;20124;-92
2023/01/24 08:58:33;;;;;;;15.70;10.57;;;2.50;99.90;;;;;;5032775;28;20053;-91
2023/01/24 09:01:00;;;;;;;14.88;11.48;;;2.50;99.90;;;;;;5029396;28;20076;-92
2023/01/24 09:03:26;;;;;;;16.33;11.10;;;2.50;99.90;;;;;;5013714;28;20123;-91
2023/01/24 09:05:58;;;;;;;14.70;10.93;;;3.30;99.90;;;;;;5014101;28;20060;-92
2023/01/24 09:08:24;;;;;;;14.82;11.18;;;2.50;99.90;;;;;;5013022;28;20395;-88
2023/01/24 09:10:50;;;;;;;17.15;10.85;;;2.60;99.90;;;;;;5025498;28;20068;-90
2023/01/24 09:13:16;;;;;;;15.00;10.82;;;2.60;99.90;;;;;;5033987;28;20084;-93
2023/01/24 09:15:42;;;;;;;13.93;10.95;;;2.60;99.90;;;;;;5036615;28;20547;-92
2023/01/24 09:18:09;;;;;;;13.57;10.50;;;2.60;99.90;;;;;;5053760;28;20055;-92
2023/01/24 09:20:35;;;;;;;15.70;10.60;;;2.60;99.90;;;;;;5042040;28;20052;-92
2023/01/24 09:23:09;;;;;;;13.45;10.23;;;2.40;99.90;;;;;;5036128;28;20037;-94
2023/01/24 09:25:35;;;;;;;14.38;10.63;;;2.60;99.90;;;;;;5051205;28;20045;-93
2023/01/24 09:28:00;;;;;;;14.57;9.73;;;3.70;99.90;;;;;;5037839;28;20059;-93
2023/01/24 09:30:26;;;;;;;14.43;10.20;;;2.60;99.90;;;;;;5038494;28;20182;-94
2023/01/24 09:32:53;;;;;;;14.55;10.65;;;2.60;99.90;;;;;;5037217;28;20120;-94
2023/01/24 09:35:19;;;;;;;16.02;11.20;;;2.60;99.90;;;;;;5035596;28;20045;-95
2023/01/24 09:37:45;;;;;;;13.98;11.02;;;2.60;99.90;;;;;;5033963;28;20078;-92
2023/01/24 09:40:35;;;;;;;13.20;10.50;;;2.60;99.90;;;;;;5035968;28;20033;-95
2023/01/24 09:43:15;;;;;;;14.35;10.65;;;2.60;99.90;;;;;;5036607;28;20049;-89
2023/01/24 09:45:51;;;;;;;15.40;10.25;;;2.60;99.90;;;;;;5054300;28;20406;-95
2023/01/24 09:48:19;;;;;;;15.13;11.27;;;2.60;99.90;;;;;;5035691;28;20106;-93
2023/01/24 09:51:02;;;;;;;17.77;11.18;;;2.60;99.90;;;;;;5036934;28;20155;-92
2023/01/24 09:53:42;;;;;;;14.80;10.93;;;2.60;99.90;;;;;;5036729;28;20487;-95
2023/01/24 09:56:26;;;;;;;15.38;11.00;;;2.60;99.90;;;;;;5033178;28;20049;-94
2023/01/24 09:59:14;;;;;;;14.90;10.82;;;2.60;99.90;;;;;;5035010;28;20048;-95
2023/01/24 10:01:40;;;;;;;14.98;10.68;;;2.60;99.90;;;;;;5036335;28;20033;-94
2023/01/24 10:04:35;;;;;;;14.93;10.18;;;2.90;99.90;;;;;;5034658;28;20117;-88
2023/01/24 10:07:20;;;;;;;13.65;10.38;;;2.70;99.90;;;;;;5032766;28;20063;-91
2023/01/24 10:09:54;;;;;;;14.13;10.00;;;2.70;99.90;;;;;;5034818;28;20124;-91
2023/01/24 10:12:28;;;;;;;15.00;11.52;;;2.70;99.90;;;;;;5031299;28;20047;-91
2023/01/24 10:15:25;;;;;;;14.63;11.13;;;2.70;99.90;;;;;;5015137;28;20048;-90
2023/01/24 10:18:12;;;;;;;15.65;11.13;;;2.70;99.90;;;;;;5031665;28;20526;-92
2023/01/24 10:21:14;;;;;;;14.50;10.50;;;2.80;99.90;;;;;;5051141;28;20100;-89
2023/01/24 10:23:43;;;;;;;15.05;11.18;;;2.80;99.90;;;;;;5048131;28;20107;-89
2023/01/24 10:26:30;;;;;;;14.32;10.48;;;3.70;99.90;;;;;;5033449;28;20061;-89
2023/01/24 10:29:07;;;;;;;15.10;11.32;;;2.80;99.90;;;;;;5051050;28;20041;-90
2023/01/24 10:31:39;;;;;;;14.68;10.85;;;;;;;;;;5033317;28;20069;-89
2023/01/24 10:34:17;;;;;;;16.20;11.45;;;2.90;99.90;;;;;;5033642;28;20053;-91
2023/01/24 10:36:53;;;;;;;14.60;10.40;;;4.20;99.90;;;;;;5033684;28;20045;-91
2023/01/24 10:39:18;;;;;;;28.38;12.52;;;2.40;99.90;;;;;;5033140;28;20041;-90
2023/01/24 10:41:44;;;;;;;16.45;11.30;;;2.70;99.90;;;;;;5033596;28;20041;-90
2023/01/24 10:44:23;;;;;;;15.75;11.27;;;3.00;99.90;;;;;;5034220;28;20087;-91
2023/01/24 10:46:54;;;;;;;15.30;11.15;;;2.80;99.90;;;;;;5034182;28;20045;-93
2023/01/24 10:49:25;;;;;;;15.40;11.45;;;2.90;99.90;;;;;;5031321;28;20048;-92
2023/01/24 10:52:17;;;;;;;14.73;10.95;;;2.00;99.90;;;;;;5033026;28;20079;-92
2023/01/24 10:54:57;;;;;;;15.48;11.93;;;2.90;99.90;;;;;;5034247;28;20048;-91
2023/01/24 10:57:38;;;;;;;14.75;11.13;;;2.90;99.90;;;;;;5033839;28;20111;-91
2023/01/24 11:00:30;;;;;;;15.50;10.95;;;2.90;99.90;;;;;;5034109;28;20103;-92
2023/01/24 11:03:01;;;;;;;15.27;11.80;;;2.90;99.90;;;;;;5027385;28;20147;-91
2023/01/24 11:05:45;;;;;;;16.38;12.02;;;2.80;99.90;;;;;;5032448;28;20510;-90
2023/01/24 11:08:18;;;;;;;15.23;12.18;;;2.70;99.90;;;;;;5032927;28;20446;-90
2023/01/24 11:10:43;;;;;;;;;;;2.90;99.90;;;;;;5033024;28;20131;-88
2023/01/24 11:13:31;;;;;;;14.70;10.98;;;2.60;99.90;;;;;;5033626;28;20016;-91
2023/01/24 11:16:16;;;;;;;15.60;12.18;;;3.00;99.90;;;;;;5030899;28;20053;-91
2023/01/24 11:19:00;;;;;;;13.43;11.40;;;2.90;99.90;;;;;;5023879;28;20041;-92
2023/01/24 11:21:27;;;;;;;14.40;10.88;;;3.00;99.90;;;;;;5026200;28;20087;-91
2023/01/24 11:24:05;;;;;;;15.15;11.52;;;4.50;99.90;;;;;;5031563;28;20468;-94
2023/01/24 11:26:51;;;;;;;15.88;12.07;;;2.90;99.90;;;;;;5034008;28;20045;-90
2023/01/24 11:29:17;;;;;;;18.08;12.27;;;2.90;99.90;;;;;;5030388;28;20513;-91
2023/01/24 11:31:46;;;;;;;15.18;11.48;;;3.40;99.90;;;;;;5032121;28;20033;-93
2023/01/24 11:34:15;;;;;;;17.77;12.25;;;4.60;99.90;;;;;;5028001;28;20046;-90
2023/01/24 11:37:02;;;;;;;17.00;12.15;;;3.00;99.90;;;;;;5013452;28;20105;-92
2023/01/24 11:39:42;;;;;;;14.35;11.43;;;3.00;99.90;;;;;;5014184;28;20049;-95
2023/01/24 11:42:36;;;;;;;14.55;11.18;;;2.90;99.90;;;;;;5021337;28;20049;-92
2023/01/24 11:45:43;;;;;;;18.05;12.52;;;2.90;99.90;;;;;;5013443;28;20067;-91
2023/01/24 11:48:20;;;;;;;16.98;12.23;;;2.90;99.90;;;;;;5029900;28;20480;-92
2023/01/24 11:51:03;;;;;;;14.82;11.05;;;2.80;99.90;;;;;;5013296;28;20056;-90
2023/01/24 11:53:47;;;;;;;;;;;2.80;99.90;;;;;;5031902;28;20049;-92
2023/01/24 11:56:20;;;;;;;16.60;11.18;;;2.80;99.90;;;;;;5032195;28;20051;-90
2023/01/24 11:58:58;;;;;;;16.48;11.77;;;2.80;99.90;;;;;;5030257;28;20037;-90
2023/01/24 12:01:54;;;;;;;16.73;12.27;;;2.90;99.90;;;;;;5048948;28;20049;-89
2023/01/24 12:04:22;;;;;;;17.92;11.68;;;2.80;99.90;;;;;;5047104;28;20044;-89
2023/01/24 12:06:57;;;;;;;15.43;10.88;;;2.50;99.90;;;;;;5031631;28;20043;-89
2023/01/24 12:09:37;;;;;;;16.15;11.65;;;2.80;99.90;;;;;;5032268;28;20128;-90
2023/01/24 12:12:37;;;;;;;16.98;12.43;;;2.80;99.90;;;;;;5032996;28;20249;-90
2023/01/24 12:15:12;;;;;;;17.98;12.05;;;2.90;99.90;;;;;;5032759;28;20067;-91
2023/01/24 12:18:14;;;;;;;16.65;12.75;;;2.90;99.90;;;;;;5032989;28;20041;-91
2023/01/24 12:20:52;;;;;;;17.55;12.35;;;2.80;99.90;;;;;;5031143;28;20080;-91
2023/01/24 12:23:43;;;;;;;18.65;13.48;;;2.20;99.90;;;;;;5030639;28;20088;-90
2023/01/24 12:26:20;;;;;;;17.80;12.75;;;2.90;99.90;;;;;;5031113;28;20123;-90
2023/01/24 12:28:56;;;;;;;16.55;12.05;;;2.80;99.90;;;;;;5031080;28;20072;-91
2023/01/24 12:31:44;;;;;;;20.00;12.85;;;2.90;99.90;;;;;;5029161;28;20083;-90
2023/01/24 12:34:29;;;;;;;16.05;11.85;;;2.90;99.90;;;;;;5028905;28;20376;-90
2023/01/24 12:37:18;;;;;;;18.35;13.05;;;2.90;99.90;;;;;;5017054;28;20519;-90
2023/01/24 12:40:00;;;;;;;15.65;11.77;;;2.90;99.90;;;;;;5036269;28;20041;-90
2023/01/24 12:42:40;;;;;;;16.65;12.02;;;2.80;99.90;;;;;;5030802;28;20076;-90
2023/01/24 12:45:13;;;;;;;18.83;11.55;;;2.70;99.90;;;;;;5029021;28;20156;-89
2023/01/24 12:48:03;;;;;;;15.18;11.27;;;2.60;99.90;;;;;;5015465;28;20052;-90
2023/01/24 12:50:56;;;;;;;14.75;11.75;;;2.80;99.90;;;;;;5046286;28;20128;-89
2023/01/24 12:53:28;;;;;;;17.33;11.68;;;2.70;99.90;;;;;;5015252;28;20037;-90
2023/01/24 12:56:13;;;;;;;16.67;12.10;;;2.70;99.90;;;;;;5031341;28;20044;-90
2023/01/24 12:58:45;;;;;;;16.35;11.75;;;2.60;99.90;;;;;;5031710;28;20044;-90
2023/01/24 13:01:22;;;;;;;14.02;10.80;;;2.60;99.90;;;;;;5032001;28;20088;-89
2023/01/24 13:04:11;;;;;;;16.00;12.25;;;2.70;99.90;;;;;;5031469;28;20143;-89
2023/01/24 13:06:43;;;;;;;17.13;12.45;;;3.10;99.90;;;;;;5031740;28;20049;-90
2023/01/24 13:09:30;;;;;;;17.23;11.27;;;3.90;99.90;;;;;;5020264;28;20547;-90
2023/01/24 13:12:03;;;;;;;15.75;11.40;;;2.60;99.90;;;;;;5025845;28;20053;-90
2023/01/24 13:14:53;;;;;;;17.88;11.43;;;2.70;99.90;;;;;;5046103;28;20041;-90
2023/01/24 13:17:20;;;;;;;15.55;11.50;;;2.70;99.90;;;;;;5022498;28;20103;-85
2023/01/24 13:20:04;;;;;;;15.13;11.55;;;1.40;99.90;;;;;;5026558;28;20124;-93
2023/01/24 13:22:30;;;;;;;17.25;11.23;;;2.30;99.90;;;;;;5028906;28;20091;-87
2023/01/24 13:25:04;;;;;;;17.33;12.82;;;4.20;99.90;;;;;;5030741;28;20040;-89
2023/01/24 13:27:36;;;;;;;16.45;11.68;;;2.50;99.90;;;;;;5031557;28;20511;-87
2023/01/24 13:30:25;;;;;;;19.13;12.32;;;2.60;99.90;;;;;;5032375;28;20055;-89
2023/01/24 13:32:53;;;;;;;17.02;11.60;;;2.40;99.90;;;;;;5017027;28;20061;-89
2023/01/24 13:35:24;;;;;;;16.45;11.90;;;2.60;99.90;;;;;;5031748;28;20057;-89
2023/01/24 13:38:06;;;;;;;16.15;12.30;;;1.60;99.90;;;;;;5047053;28;20051;-89